createdAt,value
2023-10-24T00:03:55.355Z,99907.92
2023-10-24T00:08:57.912Z,99908.05
2023-10-24T00:14:00.316Z,99908.69
2023-10-24T00:19:03.002Z,99907.03
2023-10-24T00:24:05.914Z,99902.27
2023-10-24T00:29:08.463Z,99909.29
2023-10-24T00:34:13.785Z,99911.20
2023-10-24T00:39:16.632Z,99904.60
2023-10-24T00:44:19.055Z,99907.34
2023-10-24T00:49:22.291Z,99912.60
2023-10-24T00:54:25.447Z,99913.08
2023-10-24T00:59:28.798Z,99907.81
2023-10-24T01:04:31.599Z,99906.64
2023-10-24T01:09:34.828Z,99905.08
2023-10-24T01:14:37.650Z,99902.45
2023-10-24T01:19:40.416Z,99902.31
2023-10-24T01:24:42.849Z,99898.89
2023-10-24T01:29:46.088Z,99898.70
2023-10-24T01:34:48.696Z,99893.34
2023-10-24T01:39:51.821Z,99895.36
2023-10-24T01:44:54.632Z,99898.70
2023-10-24T01:49:56.992Z,99903.39
2023-10-24T01:55:00.312Z,99909.07
2023-10-24T02:00:04.693Z,99907.79
2023-10-24T02:05:07.650Z,99907.96
2023-10-24T02:10:10.717Z,99906.77
2023-10-24T02:15:13.642Z,99900.05
2023-10-24T02:20:16.510Z,99901.79
2023-10-24T02:25:19.773Z,99896.31
2023-10-24T02:30:23.202Z,99898.92
2023-10-24T02:35:25.708Z,99899.54
2023-10-24T02:40:28.245Z,99905.38
2023-10-24T02:45:31.198Z,99908.77
2023-10-24T02:50:33.813Z,99909.13
2023-10-24T02:55:37.098Z,99908.36
2023-10-24T03:00:40.843Z,99906.36
2023-10-24T03:05:43.379Z,99901.57
2023-10-24T03:10:46.814Z,99896.73
2023-10-24T03:15:49.291Z,99894.06
2023-10-24T03:20:51.997Z,99892.84
2023-10-24T03:25:55.135Z,99893.38
2023-10-24T03:31:09.193Z,99884.80
2023-10-24T03:36:16.401Z,99879.23
2023-10-24T03:41:19.046Z,99879.40
2023-10-24T03:46:21.809Z,99875.08
2023-10-24T03:51:24.576Z,99878.02
2023-10-24T03:56:28.239Z,99880.07
2023-10-24T04:01:31.638Z,99874.12
2023-10-24T04:06:37.694Z,99877.99
2023-10-24T04:11:40.299Z,99869.36
2023-10-24T04:16:42.854Z,99863.04
2023-10-24T04:21:46.541Z,99863.84
2023-10-24T04:26:49.591Z,99863.64
2023-10-24T04:31:52.340Z,99859.27
2023-10-24T04:36:57.242Z,99860.59
2023-10-24T04:42:00.874Z,99857.49
2023-10-24T04:47:03.531Z,99857.55
2023-10-24T04:52:06.937Z,99866.71
2023-10-24T04:57:09.480Z,99877.15
2023-10-24T05:02:12.658Z,99877.15
2023-10-24T05:07:15.382Z,99872.95
2023-10-24T05:12:17.774Z,99871.66
2023-10-24T05:17:21.150Z,99867.16
2023-10-24T05:22:23.601Z,99866.10
2023-10-24T05:27:27.666Z,99866.45
2023-10-24T05:32:30.385Z,99865.61
2023-10-24T05:37:33.095Z,99873.02
2023-10-24T05:42:35.488Z,99883.98
2023-10-24T05:47:37.938Z,99881.86
2023-10-24T05:52:41.060Z,99868.66
2023-10-24T05:57:44.192Z,99870.53
2023-10-24T06:02:46.671Z,99878.40
2023-10-24T06:07:49.717Z,99884.75
2023-10-24T06:12:52.738Z,99894.20
2023-10-24T06:17:56.810Z,99898.19
2023-10-24T06:23:08.601Z,99903.30
2023-10-24T06:28:12.546Z,99909.59
2023-10-24T06:33:15.982Z,99911.09
2023-10-24T06:38:18.921Z,99902.15
2023-10-24T06:43:22.196Z,99906.77
2023-10-24T06:48:24.768Z,99911.85
2023-10-24T06:53:27.342Z,99917.74
2023-10-24T06:58:30.541Z,99922.08
2023-10-24T07:03:33.440Z,99926.49
2023-10-24T07:08:36.004Z,99925.49
2023-10-24T07:13:39.159Z,99921.58
2023-10-24T07:18:42.190Z,99915.58
2023-10-24T07:23:45.048Z,99904.62
2023-10-24T07:28:48.255Z,99900.25
2023-10-24T07:33:50.878Z,99907.73
2023-10-24T07:38:54.174Z,99898.50
2023-10-24T07:43:57.398Z,99895.37
2023-10-24T07:49:00.200Z,99895.88
2023-10-24T07:54:03.385Z,99904.92
2023-10-24T07:59:05.807Z,99906.33
2023-10-24T08:04:08.378Z,99906.36
2023-10-24T08:09:10.924Z,99900.41
2023-10-24T08:14:14.546Z,99895.70
2023-10-24T08:19:17.055Z,99887.41
2023-10-24T08:24:20.014Z,99879.73
2023-10-24T08:29:23.281Z,99875.53
2023-10-24T08:34:26.153Z,99866.19
2023-10-24T08:39:29.224Z,99866.20
2023-10-24T08:44:33.763Z,99865.76
2023-10-24T08:49:40.499Z,99863.44
2023-10-24T08:54:45.945Z,99861.86
2023-10-24T08:59:48.855Z,99859.65
2023-10-24T09:04:52.589Z,99852.37
2023-10-24T09:09:55.098Z,99845.91
2023-10-24T09:14:59.897Z,99843.91
2023-10-24T09:20:06.282Z,99842.33
2023-10-24T09:25:10.278Z,99838.10
2023-10-24T09:30:14.078Z,99842.83
2023-10-24T09:35:16.863Z,99838.90
2023-10-24T09:40:20.226Z,99837.60
2023-10-24T09:45:23.011Z,99834.16
2023-10-24T09:50:26.715Z,99820.34
2023-10-24T09:55:29.798Z,99806.58
2023-10-24T10:00:35.512Z,99796.75
2023-10-24T10:05:39.899Z,99797.58
2023-10-24T10:10:46.779Z,99783.48
2023-10-24T10:16:11.627Z,99778.79
2023-10-24T10:21:38.209Z,99747.54
2023-10-24T10:27:05.228Z,99741.61
2023-10-24T10:32:39.594Z,99739.06
2023-10-24T10:38:07.023Z,99737.78
2023-10-24T10:43:29.444Z,99735.02
2023-10-24T10:48:32.851Z,99726.15
2023-10-24T10:53:46.383Z,99725.25
2023-10-24T10:59:08.027Z,99716.55
2023-10-24T11:04:21.354Z,99720.79
2023-10-24T11:09:35.847Z,99703.56
2023-10-24T11:14:38.500Z,99690.63
2023-10-24T11:19:41.669Z,99694.41
2023-10-24T11:24:44.316Z,99688.25
2023-10-24T11:29:46.971Z,99685.16
2023-10-24T11:34:50.118Z,99677.31
2023-10-24T11:39:53.030Z,99678.65
2023-10-24T11:44:56.179Z,99668.80
2023-10-24T11:50:01.580Z,99664.04
2023-10-24T11:55:05.642Z,99653.40
2023-10-24T12:00:17.452Z,99641.54
2023-10-24T12:05:20.768Z,99644.64
2023-10-24T12:10:23.703Z,99639.76
2023-10-24T12:15:27.837Z,99632.00
2023-10-24T12:20:37.600Z,99626.57
2023-10-24T12:25:40.158Z,99628.21
2023-10-24T12:30:44.134Z,99636.48
2023-10-24T12:35:48.878Z,99635.33
2023-10-24T12:40:51.386Z,99628.39
2023-10-24T12:45:54.617Z,99638.23
2023-10-24T12:50:57.886Z,99630.13
2023-10-24T12:56:03.116Z,99622.27
2023-10-24T13:01:05.660Z,99609.84
2023-10-24T13:06:08.955Z,99604.59
2023-10-24T13:11:11.471Z,99585.77
2023-10-24T13:16:14.561Z,99574.64
2023-10-24T13:21:16.980Z,99571.44
2023-10-24T13:26:19.463Z,99568.94
2023-10-24T13:31:24.694Z,99571.16
2023-10-24T13:36:28.519Z,99573.89
2023-10-24T13:41:32.605Z,99568.00
2023-10-24T13:46:36.117Z,99570.44
2023-10-24T13:51:39.239Z,99562.96
2023-10-24T13:56:41.807Z,99555.66
2023-10-24T14:01:44.266Z,99540.16
2023-10-24T14:06:46.668Z,99540.73
2023-10-24T14:11:49.575Z,99533.71
2023-10-24T14:16:52.184Z,99533.84
2023-10-24T14:21:55.971Z,99546.75
2023-10-24T14:27:01.209Z,99543.31
2023-10-24T14:32:04.116Z,99535.44
2023-10-24T14:37:07.279Z,99535.95
2023-10-24T14:42:09.747Z,99529.09
2023-10-24T14:47:12.887Z,99529.64
2023-10-24T14:52:17.176Z,99527.05
2023-10-24T14:57:19.800Z,99526.20
2023-10-24T15:02:22.132Z,99519.92
2023-10-24T15:07:25.456Z,99522.64
2023-10-24T15:12:27.847Z,99527.52
2023-10-24T15:17:30.529Z,99520.21
2023-10-24T15:22:36.182Z,99510.67
2023-10-24T15:27:38.667Z,99509.75
2023-10-24T15:32:41.091Z,99506.64
2023-10-24T15:37:43.656Z,99502.23
2023-10-24T15:42:46.271Z,99497.56
2023-10-24T15:47:49.936Z,99501.64
2023-10-24T15:52:52.513Z,99503.44
2023-10-24T15:58:05.685Z,99502.84
2023-10-24T16:03:09.197Z,99504.34
2023-10-24T16:08:12.594Z,99501.70
2023-10-24T16:13:15.131Z,99504.52
2023-10-24T16:18:19.433Z,99496.36
2023-10-24T16:23:22.692Z,99497.05
2023-10-24T16:28:29.346Z,99499.00
2023-10-24T16:33:32.988Z,99500.13
2023-10-24T16:38:35.625Z,99502.09
2023-10-24T16:43:38.186Z,99480.35
2023-10-24T16:48:40.673Z,99473.06
2023-10-24T16:53:45.445Z,99469.39
2023-10-24T16:58:47.811Z,99453.54
2023-10-24T17:03:50.677Z,99444.39
2023-10-24T17:08:53.431Z,99442.13
2023-10-24T17:13:56.590Z,99431.85
2023-10-24T17:19:00.235Z,99420.54
2023-10-24T17:24:03.076Z,99412.33
2023-10-24T17:29:05.897Z,99404.88
2023-10-24T17:34:10.195Z,99403.20
2023-10-24T17:39:12.461Z,99392.43
2023-10-24T17:44:16.094Z,99384.75
2023-10-24T17:49:18.559Z,99370.17
2023-10-24T17:54:21.734Z,99357.41
2023-10-24T17:59:25.836Z,99353.67
2023-10-24T18:04:28.936Z,99347.40
2023-10-24T18:09:32.167Z,99346.66
2023-10-24T18:14:35.468Z,99337.79
2023-10-24T18:19:39.471Z,99332.56
2023-10-24T18:24:42.147Z,99327.91
2023-10-24T18:29:47.652Z,99323.63
2023-10-24T18:34:50.279Z,99317.70
2023-10-24T18:39:53.575Z,99300.94
2023-10-24T18:45:00.205Z,99301.38
2023-10-24T18:50:02.715Z,99305.86
2023-10-24T18:55:06.412Z,99305.20
2023-10-24T19:00:09.675Z,99290.42
2023-10-24T19:05:12.332Z,99285.69
2023-10-24T19:10:16.579Z,99289.64
2023-10-24T19:15:20.384Z,99284.02
2023-10-24T19:20:24.718Z,99283.96
2023-10-24T19:25:27.742Z,99278.59
2023-10-24T19:30:34.665Z,99271.41
2023-10-24T19:35:39.457Z,99264.55
2023-10-24T19:40:42.986Z,99244.46
2023-10-24T19:45:49.194Z,99231.15
2023-10-24T19:50:52.702Z,99226.42
2023-10-24T19:55:57.076Z,99218.38
2023-10-24T20:01:05.269Z,99206.75
2023-10-24T20:06:10.169Z,99206.91
2023-10-24T20:12:33.960Z,99194.36
2023-10-24T20:16:37.533Z,99189.69
2023-10-24T20:21:41.022Z,99182.96
2023-10-24T20:26:44.204Z,99183.19
2023-10-24T20:31:47.066Z,99178.90
2023-10-24T20:36:50.035Z,99180.55
2023-10-24T20:41:52.464Z,99172.14
2023-10-24T20:46:55.626Z,99173.41
2023-10-24T20:51:58.095Z,99166.90
2023-10-24T20:57:01.411Z,99161.95
2023-10-24T21:02:07.996Z,99155.89
2023-10-24T21:07:10.890Z,99139.41
2023-10-24T21:12:14.615Z,99129.80
2023-10-24T21:17:17.106Z,99120.61
2023-10-24T21:22:19.667Z,99114.27
2023-10-24T21:27:24.217Z,99107.92
2023-10-24T21:32:26.758Z,99103.52
2023-10-24T21:37:29.886Z,99095.00
2023-10-24T21:42:33.085Z,99079.54
2023-10-24T21:47:36.652Z,99071.43
2023-10-24T21:52:38.989Z,99067.10
2023-10-24T21:57:41.520Z,99058.70
2023-10-24T22:02:44.284Z,99046.14
2023-10-24T22:07:46.965Z,99041.38
2023-10-24T22:12:51.333Z,99041.09
2023-10-24T22:17:54.978Z,99037.69
2023-10-24T22:22:57.706Z,99018.61
2023-10-24T22:28:05.715Z,99006.85
2023-10-24T22:33:08.915Z,98992.46
2023-10-24T22:38:11.748Z,98994.40
2023-10-24T22:43:14.416Z,98984.77
2023-10-24T22:48:17.911Z,98984.45
2023-10-24T22:53:20.398Z,98976.85
2023-10-24T22:58:23.048Z,98970.90
2023-10-24T23:03:26.448Z,98963.55
2023-10-24T23:08:29.083Z,98950.31
2023-10-24T23:13:32.959Z,98948.00
2023-10-24T23:18:41.839Z,98945.40
2023-10-24T23:23:44.597Z,98939.63
2023-10-24T23:28:47.198Z,98932.44
2023-10-24T23:33:50.672Z,98918.69
2023-10-24T23:38:53.238Z,98908.38
2023-10-24T23:43:56.375Z,98896.45
2023-10-24T23:48:59.359Z,98888.98
2023-10-24T23:54:02.040Z,98889.44
2023-10-24T23:59:04.850Z,98886.88
